sensor_id;sensor_type;location;lat;lon;timestamp;P1;durP1;ratioP1;P2;durP2;ratioP2
495;SDS011;39559;48.630;9.162;2023-05-16T00:00:14;10.80;;;7.10;;
495;SDS011;39559;48.630;9.162;2023-05-16T00:02:41;10.98;;;7.40;;
495;SDS011;39559;48.630;9.162;2023-05-16T00:06:32;29.67;;;12.23;;
495;SDS011;39559;48.630;9.162;2023-05-16T00:09:00;30.70;;;12.93;;
495;SDS011;39559;48.630;9.162;2023-05-16T00:11:27;8.80;;;7.00;;
495;SDS011;39559;48.630;9.162;2023-05-16T00:13:53;8.48;;;7.53;;
495;SDS011;39559;48.630;9.162;2023-05-16T00:16:20;14.85;;;8.68;;
495;SDS011;39559;48.630;9.162;2023-05-16T00:18:50;8.88;;;7.55;;
495;SDS011;39559;48.630;9.162;2023-05-16T00:21:17;8.65;;;7.65;;
495;SDS011;39559;48.630;9.162;2023-05-16T00:23:44;12.18;;;8.48;;
495;SDS011;39559;48.630;9.162;2023-05-16T00:26:11;13.23;;;8.27;;
495;SDS011;39559;48.630;9.162;2023-05-16T00:30:31;11.52;;;7.70;;
495;SDS011;39559;48.630;9.162;2023-05-16T00:32:58;15.98;;;8.13;;
495;SDS011;39559;48.630;9.162;2023-05-16T00:35:25;14.00;;;7.75;;
495;SDS011;39559;48.630;9.162;2023-05-16T00:37:52;9.75;;;7.13;;
495;SDS011;39559;48.630;9.162;2023-05-16T00:40:19;8.32;;;7.47;;
495;SDS011;39559;48.630;9.162;2023-05-16T00:42:46;17.23;;;9.32;;
495;SDS011;39559;48.630;9.162;2023-05-16T00:45:13;8.60;;;6.90;;
495;SDS011;39559;48.630;9.162;2023-05-16T00:47:44;9.93;;;7.55;;
495;SDS011;39559;48.630;9.162;2023-05-16T00:50:11;13.15;;;8.68;;
495;SDS011;39559;48.630;9.162;2023-05-16T00:54:39;21.90;;;9.10;;
495;SDS011;39559;48.630;9.162;2023-05-16T00:57:06;7.50;;;6.70;;
495;SDS011;39559;48.630;9.162;2023-05-16T00:59:34;13.65;;;7.18;;
495;SDS011;39559;48.630;9.162;2023-05-16T01:02:01;9.90;;;7.57;;
495;SDS011;39559;48.630;9.162;2023-05-16T01:04:28;10.52;;;7.55;;
495;SDS011;39559;48.630;9.162;2023-05-16T01:06:56;9.63;;;7.05;;
495;SDS011;39559;48.630;9.162;2023-05-16T01:09:24;10.13;;;7.70;;
495;SDS011;39559;48.630;9.162;2023-05-16T01:14:50;13.98;;;8.23;;
495;SDS011;39559;48.630;9.162;2023-05-16T01:21:15;16.55;;;7.80;;
495;SDS011;39559;48.630;9.162;2023-05-16T01:26:30;11.48;;;7.70;;
495;SDS011;39559;48.630;9.162;2023-05-16T01:28:58;10.15;;;8.10;;
495;SDS011;39559;48.630;9.162;2023-05-16T01:31:25;11.77;;;8.20;;
495;SDS011;39559;48.630;9.162;2023-05-16T01:33:53;14.95;;;8.50;;
495;SDS011;39559;48.630;9.162;2023-05-16T01:42:25;10.68;;;8.18;;
495;SDS011;39559;48.630;9.162;2023-05-16T01:44:57;9.05;;;7.57;;
495;SDS011;39559;48.630;9.162;2023-05-16T01:47:40;13.13;;;9.00;;
495;SDS011;39559;48.630;9.162;2023-05-16T01:50:13;10.93;;;8.77;;
495;SDS011;39559;48.630;9.162;2023-05-16T01:52:59;9.25;;;8.02;;
495;SDS011;39559;48.630;9.162;2023-05-16T01:55:55;8.80;;;7.82;;
495;SDS011;39559;48.630;9.162;2023-05-16T01:58:27;8.65;;;7.70;;
495;SDS011;39559;48.630;9.162;2023-05-16T02:01:01;9.30;;;8.00;;
495;SDS011;39559;48.630;9.162;2023-05-16T02:03:29;7.95;;;7.15;;
495;SDS011;39559;48.630;9.162;2023-05-16T02:06:21;11.50;;;8.52;;
495;SDS011;39559;48.630;9.162;2023-05-16T02:08:49;12.85;;;8.65;;
495;SDS011;39559;48.630;9.162;2023-05-16T02:11:17;10.00;;;8.20;;
495;SDS011;39559;48.630;9.162;2023-05-16T02:13:44;15.70;;;8.98;;
495;SDS011;39559;48.630;9.162;2023-05-16T02:16:14;12.52;;;9.32;;
495;SDS011;39559;48.630;9.162;2023-05-16T02:18:41;12.10;;;9.43;;
495;SDS011;39559;48.630;9.162;2023-05-16T02:21:09;11.25;;;8.45;;
495;SDS011;39559;48.630;9.162;2023-05-16T02:23:37;12.88;;;9.20;;
495;SDS011;39559;48.630;9.162;2023-05-16T02:26:04;9.88;;;7.47;;
495;SDS011;39559;48.630;9.162;2023-05-16T02:30:19;13.80;;;8.45;;
495;SDS011;39559;48.630;9.162;2023-05-16T02:32:46;12.40;;;8.38;;
495;SDS011;39559;48.630;9.162;2023-05-16T02:35:14;14.93;;;8.27;;
495;SDS011;39559;48.630;9.162;2023-05-16T02:37:41;8.20;;;7.40;;
495;SDS011;39559;48.630;9.162;2023-05-16T02:40:08;12.77;;;8.45;;
495;SDS011;39559;48.630;9.162;2023-05-16T02:42:35;9.02;;;7.32;;
495;SDS011;39559;48.630;9.162;2023-05-16T02:45:02;9.82;;;7.40;;
495;SDS011;39559;48.630;9.162;2023-05-16T02:47:29;8.57;;;7.03;;
495;SDS011;39559;48.630;9.162;2023-05-16T02:49:56;12.35;;;7.25;;
495;SDS011;39559;48.630;9.162;2023-05-16T02:54:18;20.98;;;10.13;;
495;SDS011;39559;48.630;9.162;2023-05-16T02:56:45;17.63;;;10.07;;
495;SDS011;39559;48.630;9.162;2023-05-16T02:59:12;10.05;;;7.63;;
495;SDS011;39559;48.630;9.162;2023-05-16T03:01:38;7.47;;;6.75;;
495;SDS011;39559;48.630;9.162;2023-05-16T03:04:04;9.90;;;7.20;;
495;SDS011;39559;48.630;9.162;2023-05-16T03:06:31;10.88;;;8.30;;
495;SDS011;39559;48.630;9.162;2023-05-16T03:08:58;11.75;;;7.82;;
495;SDS011;39559;48.630;9.162;2023-05-16T03:11:25;12.32;;;9.15;;
495;SDS011;39559;48.630;9.162;2023-05-16T03:13:53;11.23;;;8.13;;
495;SDS011;39559;48.630;9.162;2023-05-16T03:18:15;12.73;;;8.52;;
495;SDS011;39559;48.630;9.162;2023-05-16T03:20:42;11.93;;;9.70;;
495;SDS011;39559;48.630;9.162;2023-05-16T03:23:08;12.55;;;10.40;;
495;SDS011;39559;48.630;9.162;2023-05-16T03:25:36;15.85;;;11.90;;
495;SDS011;39559;48.630;9.162;2023-05-16T03:28:06;16.70;;;12.30;;
495;SDS011;39559;48.630;9.162;2023-05-16T03:30:33;13.45;;;10.45;;
495;SDS011;39559;48.630;9.162;2023-05-16T03:33:00;18.08;;;12.55;;
495;SDS011;39559;48.630;9.162;2023-05-16T03:35:29;23.48;;;12.13;;
495;SDS011;39559;48.630;9.162;2023-05-16T03:37:57;18.42;;;13.45;;
495;SDS011;39559;48.630;9.162;2023-05-16T03:42:13;27.85;;;19.85;;
495;SDS011;39559;48.630;9.162;2023-05-16T03:44:40;27.98;;;18.60;;
495;SDS011;39559;48.630;9.162;2023-05-16T03:47:06;33.05;;;20.90;;
495;SDS011;39559;48.630;9.162;2023-05-16T03:49:34;34.25;;;19.92;;
495;SDS011;39559;48.630;9.162;2023-05-16T03:52:05;34.17;;;22.13;;
495;SDS011;39559;48.630;9.162;2023-05-16T03:54:32;33.38;;;20.17;;
495;SDS011;39559;48.630;9.162;2023-05-16T03:56:59;33.55;;;22.25;;
495;SDS011;39559;48.630;9.162;2023-05-16T03:59:26;35.22;;;19.42;;
495;SDS011;39559;48.630;9.162;2023-05-16T04:01:52;34.80;;;21.30;;
495;SDS011;39559;48.630;9.162;2023-05-16T04:06:11;36.53;;;21.05;;
495;SDS011;39559;48.630;9.162;2023-05-16T04:08:38;34.72;;;18.98;;
495;SDS011;39559;48.630;9.162;2023-05-16T04:11:05;37.40;;;18.95;;
495;SDS011;39559;48.630;9.162;2023-05-16T04:16:02;31.17;;;18.85;;
495;SDS011;39559;48.630;9.162;2023-05-16T04:18:29;23.90;;;15.65;;
495;SDS011;39559;48.630;9.162;2023-05-16T04:20:56;25.23;;;14.43;;
495;SDS011;39559;48.630;9.162;2023-05-16T04:23:25;24.80;;;14.80;;
495;SDS011;39559;48.630;9.162;2023-05-16T04:25:51;33.28;;;14.35;;
495;SDS011;39559;48.630;9.162;2023-05-16T04:30:10;29.42;;;15.07;;
495;SDS011;39559;48.630;9.162;2023-05-16T04:32:39;27.33;;;9.95;;
495;SDS011;39559;48.630;9.162;2023-05-16T04:35:05;16.73;;;9.80;;
495;SDS011;39559;48.630;9.162;2023-05-16T04:37:33;34.47;;;11.38;;
495;SDS011;39559;48.630;9.162;2023-05-16T04:40:00;19.52;;;9.75;;
495;SDS011;39559;48.630;9.162;2023-05-16T04:42:27;21.90;;;12.15;;
495;SDS011;39559;48.630;9.162;2023-05-16T04:44:54;16.75;;;10.80;;
495;SDS011;39559;48.630;9.162;2023-05-16T04:47:21;15.88;;;10.07;;
495;SDS011;39559;48.630;9.162;2023-05-16T04:49:48;19.05;;;11.90;;
495;SDS011;39559;48.630;9.162;2023-05-16T04:54:08;15.45;;;10.07;;
495;SDS011;39559;48.630;9.162;2023-05-16T04:56:42;14.20;;;10.25;;
495;SDS011;39559;48.630;9.162;2023-05-16T04:59:08;14.43;;;9.35;;
495;SDS011;39559;48.630;9.162;2023-05-16T05:01:35;12.70;;;9.05;;
495;SDS011;39559;48.630;9.162;2023-05-16T05:04:01;17.92;;;10.18;;
495;SDS011;39559;48.630;9.162;2023-05-16T05:06:26;19.93;;;12.13;;
495;SDS011;39559;48.630;9.162;2023-05-16T05:08:52;21.33;;;13.77;;
495;SDS011;39559;48.630;9.162;2023-05-16T05:11:18;25.33;;;13.93;;
495;SDS011;39559;48.630;9.162;2023-05-16T05:13:45;24.05;;;16.52;;
495;SDS011;39559;48.630;9.162;2023-05-16T05:18:04;35.78;;;20.60;;
495;SDS011;39559;48.630;9.162;2023-05-16T05:20:30;40.37;;;21.40;;
495;SDS011;39559;48.630;9.162;2023-05-16T05:22:56;38.90;;;22.93;;
495;SDS011;39559;48.630;9.162;2023-05-16T05:25:21;48.90;;;22.77;;
495;SDS011;39559;48.630;9.162;2023-05-16T05:27:47;39.10;;;21.93;;
495;SDS011;39559;48.630;9.162;2023-05-16T05:30:13;42.03;;;22.03;;
495;SDS011;39559;48.630;9.162;2023-05-16T05:32:39;44.47;;;21.40;;
495;SDS011;39559;48.630;9.162;2023-05-16T05:35:04;42.13;;;21.90;;
495;SDS011;39559;48.630;9.162;2023-05-16T05:37:30;36.55;;;22.17;;
495;SDS011;39559;48.630;9.162;2023-05-16T05:42:03;41.15;;;21.73;;
495;SDS011;39559;48.630;9.162;2023-05-16T05:44:29;37.20;;;21.13;;
495;SDS011;39559;48.630;9.162;2023-05-16T05:46:55;34.13;;;22.70;;
495;SDS011;39559;48.630;9.162;2023-05-16T05:49:29;45.50;;;21.50;;
495;SDS011;39559;48.630;9.162;2023-05-16T05:51:55;33.22;;;20.92;;
495;SDS011;39559;48.630;9.162;2023-05-16T05:54:21;34.67;;;23.95;;
495;SDS011;39559;48.630;9.162;2023-05-16T05:56:47;32.20;;;19.20;;
495;SDS011;39559;48.630;9.162;2023-05-16T05:59:13;38.20;;;20.83;;
495;SDS011;39559;48.630;9.162;2023-05-16T06:01:39;35.17;;;20.98;;
495;SDS011;39559;48.630;9.162;2023-05-16T06:06:01;38.10;;;21.23;;
495;SDS011;39559;48.630;9.162;2023-05-16T06:08:28;38.28;;;22.05;;
495;SDS011;39559;48.630;9.162;2023-05-16T06:10:53;41.43;;;21.03;;
495;SDS011;39559;48.630;9.162;2023-05-16T06:13:19;53.03;;;26.73;;
495;SDS011;39559;48.630;9.162;2023-05-16T06:15:49;38.00;;;23.40;;
495;SDS011;39559;48.630;9.162;2023-05-16T06:18:15;43.00;;;23.08;;
495;SDS011;39559;48.630;9.162;2023-05-16T06:20:41;32.93;;;20.43;;
495;SDS011;39559;48.630;9.162;2023-05-16T06:23:07;41.13;;;22.80;;
495;SDS011;39559;48.630;9.162;2023-05-16T06:25:33;41.30;;;23.80;;
495;SDS011;39559;48.630;9.162;2023-05-16T06:29:59;41.30;;;22.05;;
495;SDS011;39559;48.630;9.162;2023-05-16T06:32:25;39.93;;;22.40;;
495;SDS011;39559;48.630;9.162;2023-05-16T06:34:50;49.43;;;24.47;;
495;SDS011;39559;48.630;9.162;2023-05-16T06:37:16;36.77;;;21.53;;
495;SDS011;39559;48.630;9.162;2023-05-16T06:39:43;35.10;;;20.77;;
495;SDS011;39559;48.630;9.162;2023-05-16T06:42:08;41.72;;;20.42;;
495;SDS011;39559;48.630;9.162;2023-05-16T06:44:35;34.78;;;21.20;;
495;SDS011;39559;48.630;9.162;2023-05-16T06:47:00;32.90;;;18.93;;
495;SDS011;39559;48.630;9.162;2023-05-16T06:49:26;33.80;;;20.03;;
495;SDS011;39559;48.630;9.162;2023-05-16T06:53:56;33.92;;;19.42;;
495;SDS011;39559;48.630;9.162;2023-05-16T06:56:22;35.80;;;19.43;;
495;SDS011;39559;48.630;9.162;2023-05-16T06:58:48;33.70;;;19.90;;
495;SDS011;39559;48.630;9.162;2023-05-16T07:01:16;28.13;;;18.08;;
495;SDS011;39559;48.630;9.162;2023-05-16T07:03:42;34.70;;;18.53;;
495;SDS011;39559;48.630;9.162;2023-05-16T07:06:07;30.90;;;18.50;;
495;SDS011;39559;48.630;9.162;2023-05-16T07:08:33;31.37;;;18.70;;
495;SDS011;39559;48.630;9.162;2023-05-16T07:11:01;27.27;;;18.40;;
495;SDS011;39559;48.630;9.162;2023-05-16T07:13:27;32.93;;;17.10;;
495;SDS011;39559;48.630;9.162;2023-05-16T07:17:55;37.30;;;17.92;;
495;SDS011;39559;48.630;9.162;2023-05-16T07:20:21;32.13;;;18.42;;
495;SDS011;39559;48.630;9.162;2023-05-16T07:22:47;36.95;;;20.42;;
495;SDS011;39559;48.630;9.162;2023-05-16T07:25:13;34.90;;;17.63;;
495;SDS011;39559;48.630;9.162;2023-05-16T07:27:40;26.13;;;17.65;;
495;SDS011;39559;48.630;9.162;2023-05-16T07:30:09;30.17;;;16.75;;
495;SDS011;39559;48.630;9.162;2023-05-16T07:32:36;30.30;;;17.25;;
495;SDS011;39559;48.630;9.162;2023-05-16T07:35:02;28.70;;;19.33;;
495;SDS011;39559;48.630;9.162;2023-05-16T07:37:29;31.00;;;19.15;;
495;SDS011;39559;48.630;9.162;2023-05-16T07:41:54;24.95;;;17.38;;
495;SDS011;39559;48.630;9.162;2023-05-16T07:44:19;24.27;;;16.73;;
495;SDS011;39559;48.630;9.162;2023-05-16T07:46:45;30.10;;;17.57;;
495;SDS011;39559;48.630;9.162;2023-05-16T07:49:11;25.70;;;16.07;;
495;SDS011;39559;48.630;9.162;2023-05-16T07:51:37;23.83;;;16.10;;
495;SDS011;39559;48.630;9.162;2023-05-16T07:54:04;28.85;;;16.73;;
495;SDS011;39559;48.630;9.162;2023-05-16T07:56:30;27.00;;;16.83;;
495;SDS011;39559;48.630;9.162;2023-05-16T07:58:55;22.50;;;14.30;;
495;SDS011;39559;48.630;9.162;2023-05-16T08:01:21;27.50;;;15.67;;
495;SDS011;39559;48.630;9.162;2023-05-16T08:05:51;22.35;;;14.45;;
495;SDS011;39559;48.630;9.162;2023-05-16T08:08:17;17.27;;;11.83;;
495;SDS011;39559;48.630;9.162;2023-05-16T08:10:43;19.77;;;14.00;;
495;SDS011;39559;48.630;9.162;2023-05-16T08:13:09;24.70;;;14.27;;
495;SDS011;39559;48.630;9.162;2023-05-16T08:15:34;19.37;;;12.63;;
495;SDS011;39559;48.630;9.162;2023-05-16T08:18:01;16.95;;;11.25;;
495;SDS011;39559;48.630;9.162;2023-05-16T08:20:27;16.77;;;11.13;;
495;SDS011;39559;48.630;9.162;2023-05-16T08:22:53;18.10;;;11.70;;
495;SDS011;39559;48.630;9.162;2023-05-16T08:25:19;16.08;;;10.30;;
495;SDS011;39559;48.630;9.162;2023-05-16T08:29:49;17.63;;;11.18;;
495;SDS011;39559;48.630;9.162;2023-05-16T08:32:15;17.00;;;11.87;;
495;SDS011;39559;48.630;9.162;2023-05-16T08:34:41;13.33;;;10.17;;
495;SDS011;39559;48.630;9.162;2023-05-16T08:37:06;15.00;;;11.60;;
495;SDS011;39559;48.630;9.162;2023-05-16T08:39:32;16.00;;;11.77;;
495;SDS011;39559;48.630;9.162;2023-05-16T08:41:58;18.50;;;10.70;;
495;SDS011;39559;48.630;9.162;2023-05-16T08:44:24;15.98;;;11.13;;
495;SDS011;39559;48.630;9.162;2023-05-16T08:46:51;17.90;;;11.18;;
495;SDS011;39559;48.630;9.162;2023-05-16T08:49:17;17.58;;;12.13;;
495;SDS011;39559;48.630;9.162;2023-05-16T08:53:49;18.40;;;11.45;;
495;SDS011;39559;48.630;9.162;2023-05-16T08:56:21;18.23;;;11.23;;
495;SDS011;39559;48.630;9.162;2023-05-16T08:58:49;13.15;;;10.55;;
495;SDS011;39559;48.630;9.162;2023-05-16T09:01:16;14.60;;;10.18;;
495;SDS011;39559;48.630;9.162;2023-05-16T09:03:42;17.02;;;11.70;;
495;SDS011;39559;48.630;9.162;2023-05-16T09:06:08;15.20;;;11.80;;
495;SDS011;39559;48.630;9.162;2023-05-16T09:08:34;13.47;;;10.20;;
495;SDS011;39559;48.630;9.162;2023-05-16T09:11:00;14.97;;;9.90;;
495;SDS011;39559;48.630;9.162;2023-05-16T09:13:29;14.88;;;11.45;;
495;SDS011;39559;48.630;9.162;2023-05-16T09:17:45;16.42;;;11.68;;
495;SDS011;39559;48.630;9.162;2023-05-16T09:20:13;15.30;;;11.00;;
495;SDS011;39559;48.630;9.162;2023-05-16T09:22:49;16.83;;;11.50;;
495;SDS011;39559;48.630;9.162;2023-05-16T09:25:22;20.08;;;10.52;;
495;SDS011;39559;48.630;9.162;2023-05-16T09:27:56;18.52;;;12.27;;
495;SDS011;39559;48.630;9.162;2023-05-16T09:30:23;15.25;;;10.50;;
495;SDS011;39559;48.630;9.162;2023-05-16T09:32:53;18.05;;;11.68;;
495;SDS011;39559;48.630;9.162;2023-05-16T09:35:19;16.73;;;11.30;;
495;SDS011;39559;48.630;9.162;2023-05-16T09:37:46;16.45;;;12.23;;
495;SDS011;39559;48.630;9.162;2023-05-16T09:41:43;16.38;;;11.60;;
495;SDS011;39559;48.630;9.162;2023-05-16T09:44:08;16.40;;;10.87;;
495;SDS011;39559;48.630;9.162;2023-05-16T09:46:35;16.98;;;11.48;;
495;SDS011;39559;48.630;9.162;2023-05-16T09:49:02;16.48;;;11.65;;
495;SDS011;39559;48.630;9.162;2023-05-16T09:51:27;29.80;;;14.07;;
495;SDS011;39559;48.630;9.162;2023-05-16T09:53:53;16.80;;;11.23;;
495;SDS011;39559;48.630;9.162;2023-05-16T09:56:19;18.80;;;12.10;;
495;SDS011;39559;48.630;9.162;2023-05-16T09:58:45;20.70;;;13.35;;
495;SDS011;39559;48.630;9.162;2023-05-16T10:01:11;19.80;;;11.95;;
495;SDS011;39559;48.630;9.162;2023-05-16T10:05:41;20.30;;;13.20;;
495;SDS011;39559;48.630;9.162;2023-05-16T10:08:06;24.87;;;13.33;;
495;SDS011;39559;48.630;9.162;2023-05-16T10:10:33;20.60;;;13.15;;
495;SDS011;39559;48.630;9.162;2023-05-16T10:13:02;16.63;;;12.55;;
495;SDS011;39559;48.630;9.162;2023-05-16T10:15:37;20.95;;;14.60;;
495;SDS011;39559;48.630;9.162;2023-05-16T10:18:04;18.40;;;12.93;;
495;SDS011;39559;48.630;9.162;2023-05-16T10:20:40;21.27;;;13.82;;
495;SDS011;39559;48.630;9.162;2023-05-16T10:23:08;18.73;;;13.18;;
495;SDS011;39559;48.630;9.162;2023-05-16T10:25:44;20.60;;;15.15;;
495;SDS011;39559;48.630;9.162;2023-05-16T10:29:39;23.60;;;14.50;;
495;SDS011;39559;48.630;9.162;2023-05-16T10:32:06;22.02;;;14.27;;
495;SDS011;39559;48.630;9.162;2023-05-16T10:34:33;17.33;;;13.20;;
495;SDS011;39559;48.630;9.162;2023-05-16T10:36:59;21.63;;;14.50;;
495;SDS011;39559;48.630;9.162;2023-05-16T10:39:25;18.35;;;13.10;;
495;SDS011;39559;48.630;9.162;2023-05-16T10:41:57;19.92;;;13.88;;
495;SDS011;39559;48.630;9.162;2023-05-16T10:44:24;20.17;;;14.40;;
495;SDS011;39559;48.630;9.162;2023-05-16T10:46:50;17.73;;;12.77;;
495;SDS011;39559;48.630;9.162;2023-05-16T10:49:23;20.57;;;14.17;;
495;SDS011;39559;48.630;9.162;2023-05-16T10:53:40;17.75;;;13.07;;
495;SDS011;39559;48.630;9.162;2023-05-16T10:56:06;21.30;;;12.77;;
495;SDS011;39559;48.630;9.162;2023-05-16T10:58:39;21.27;;;13.30;;
495;SDS011;39559;48.630;9.162;2023-05-16T11:06:27;18.33;;;13.07;;
495;SDS011;39559;48.630;9.162;2023-05-16T11:14:05;24.52;;;15.13;;
495;SDS011;39559;48.630;9.162;2023-05-16T11:17:41;16.42;;;11.63;;
495;SDS011;39559;48.630;9.162;2023-05-16T11:20:07;17.85;;;12.70;;
495;SDS011;39559;48.630;9.162;2023-05-16T11:25:41;18.50;;;13.05;;
495;SDS011;39559;48.630;9.162;2023-05-16T11:28:13;19.17;;;13.20;;
495;SDS011;39559;48.630;9.162;2023-05-16T11:30:42;23.20;;;12.82;;
495;SDS011;39559;48.630;9.162;2023-05-16T11:33:10;17.20;;;12.40;;
495;SDS011;39559;48.630;9.162;2023-05-16T11:35:39;20.40;;;11.60;;
495;SDS011;39559;48.630;9.162;2023-05-16T11:38:04;16.90;;;11.33;;
495;SDS011;39559;48.630;9.162;2023-05-16T11:41:29;15.35;;;11.15;;
495;SDS011;39559;48.630;9.162;2023-05-16T11:43:56;15.20;;;10.32;;
495;SDS011;39559;48.630;9.162;2023-05-16T11:46:23;15.43;;;11.17;;
495;SDS011;39559;48.630;9.162;2023-05-16T11:48:49;19.65;;;11.43;;
495;SDS011;39559;48.630;9.162;2023-05-16T11:51:20;16.77;;;11.65;;
495;SDS011;39559;48.630;9.162;2023-05-16T11:53:47;18.70;;;11.27;;
495;SDS011;39559;48.630;9.162;2023-05-16T11:56:16;13.98;;;10.43;;
495;SDS011;39559;48.630;9.162;2023-05-16T11:58:41;17.40;;;11.00;;
495;SDS011;39559;48.630;9.162;2023-05-16T12:01:07;17.53;;;10.70;;
495;SDS011;39559;48.630;9.162;2023-05-16T12:05:30;15.95;;;9.70;;
495;SDS011;39559;48.630;9.162;2023-05-16T12:07:58;18.30;;;12.05;;
495;SDS011;39559;48.630;9.162;2023-05-16T12:10:24;17.60;;;11.03;;
495;SDS011;39559;48.630;9.162;2023-05-16T12:12:50;14.32;;;9.82;;
495;SDS011;39559;48.630;9.162;2023-05-16T12:15:17;20.23;;;11.45;;
495;SDS011;39559;48.630;9.162;2023-05-16T12:17:43;14.05;;;10.25;;
495;SDS011;39559;48.630;9.162;2023-05-16T12:20:11;15.77;;;10.20;;
495;SDS011;39559;48.630;9.162;2023-05-16T12:22:45;15.55;;;10.27;;
495;SDS011;39559;48.630;9.162;2023-05-16T12:25:20;17.60;;;9.85;;
495;SDS011;39559;48.630;9.162;2023-05-16T12:29:36;17.20;;;8.73;;
495;SDS011;39559;48.630;9.162;2023-05-16T12:32:02;16.10;;;10.15;;
495;SDS011;39559;48.630;9.162;2023-05-16T12:34:35;13.50;;;9.73;;
495;SDS011;39559;48.630;9.162;2023-05-16T12:37:01;13.07;;;10.00;;
495;SDS011;39559;48.630;9.162;2023-05-16T12:39:27;12.25;;;9.23;;
495;SDS011;39559;48.630;9.162;2023-05-16T12:42:04;11.68;;;9.80;;
495;SDS011;39559;48.630;9.162;2023-05-16T12:44:35;14.32;;;10.93;;
495;SDS011;39559;48.630;9.162;2023-05-16T12:47:01;16.37;;;10.57;;
495;SDS011;39559;48.630;9.162;2023-05-16T12:49:27;15.50;;;10.60;;
495;SDS011;39559;48.630;9.162;2023-05-16T12:53:27;15.75;;;9.48;;
495;SDS011;39559;48.630;9.162;2023-05-16T12:55:53;12.48;;;9.10;;
495;SDS011;39559;48.630;9.162;2023-05-16T12:58:19;11.40;;;8.33;;
495;SDS011;39559;48.630;9.162;2023-05-16T13:00:45;14.38;;;8.95;;
495;SDS011;39559;48.630;9.162;2023-05-16T13:03:11;15.03;;;9.63;;
495;SDS011;39559;48.630;9.162;2023-05-16T13:05:36;9.40;;;6.90;;
495;SDS011;39559;48.630;9.162;2023-05-16T13:08:02;9.02;;;7.35;;
495;SDS011;39559;48.630;9.162;2023-05-16T13:10:28;13.45;;;8.20;;
495;SDS011;39559;48.630;9.162;2023-05-16T13:12:54;8.37;;;6.63;;
495;SDS011;39559;48.630;9.162;2023-05-16T13:17:23;8.52;;;6.80;;
495;SDS011;39559;48.630;9.162;2023-05-16T13:19:49;9.03;;;6.70;;
495;SDS011;39559;48.630;9.162;2023-05-16T13:22:14;8.60;;;6.83;;
495;SDS011;39559;48.630;9.162;2023-05-16T13:24:40;8.20;;;5.90;;
495;SDS011;39559;48.630;9.162;2023-05-16T13:27:06;7.77;;;6.30;;
495;SDS011;39559;48.630;9.162;2023-05-16T13:29:31;6.97;;;5.37;;
495;SDS011;39559;48.630;9.162;2023-05-16T13:31:57;7.83;;;6.50;;
495;SDS011;39559;48.630;9.162;2023-05-16T13:34:23;6.20;;;5.13;;
495;SDS011;39559;48.630;9.162;2023-05-16T13:36:48;6.27;;;5.67;;
495;SDS011;39559;48.630;9.162;2023-05-16T13:41:20;8.23;;;6.03;;
495;SDS011;39559;48.630;9.162;2023-05-16T13:43:46;7.90;;;5.82;;
495;SDS011;39559;48.630;9.162;2023-05-16T13:46:12;8.00;;;6.50;;
495;SDS011;39559;48.630;9.162;2023-05-16T13:48:40;8.50;;;6.53;;
495;SDS011;39559;48.630;9.162;2023-05-16T13:51:06;7.10;;;5.78;;
495;SDS011;39559;48.630;9.162;2023-05-16T13:53:32;6.10;;;5.50;;
495;SDS011;39559;48.630;9.162;2023-05-16T13:55:58;8.00;;;5.40;;
495;SDS011;39559;48.630;9.162;2023-05-16T13:58:23;6.30;;;4.80;;
495;SDS011;39559;48.630;9.162;2023-05-16T14:00:49;6.07;;;5.47;;
495;SDS011;39559;48.630;9.162;2023-05-16T14:05:18;5.15;;;4.40;;
495;SDS011;39559;48.630;9.162;2023-05-16T14:07:44;6.97;;;5.17;;
495;SDS011;39559;48.630;9.162;2023-05-16T14:10:10;4.70;;;4.20;;
495;SDS011;39559;48.630;9.162;2023-05-16T14:12:36;7.35;;;5.35;;
495;SDS011;39559;48.630;9.162;2023-05-16T14:15:02;5.47;;;4.97;;
495;SDS011;39559;48.630;9.162;2023-05-16T14:17:30;4.95;;;4.35;;
495;SDS011;39559;48.630;9.162;2023-05-16T14:19:55;5.60;;;5.00;;
495;SDS011;39559;48.630;9.162;2023-05-16T14:22:21;5.37;;;4.60;;
495;SDS011;39559;48.630;9.162;2023-05-16T14:24:47;5.27;;;4.50;;
495;SDS011;39559;48.630;9.162;2023-05-16T14:29:16;4.55;;;4.15;;
495;SDS011;39559;48.630;9.162;2023-05-16T14:31:41;4.90;;;4.40;;
495;SDS011;39559;48.630;9.162;2023-05-16T14:34:07;6.47;;;4.10;;
495;SDS011;39559;48.630;9.162;2023-05-16T14:36:33;5.83;;;4.30;;
495;SDS011;39559;48.630;9.162;2023-05-16T14:38:59;4.35;;;3.75;;
495;SDS011;39559;48.630;9.162;2023-05-16T14:41:24;4.90;;;4.40;;
495;SDS011;39559;48.630;9.162;2023-05-16T14:43:50;5.10;;;3.90;;
495;SDS011;39559;48.630;9.162;2023-05-16T14:46:16;4.83;;;4.17;;
495;SDS011;39559;48.630;9.162;2023-05-16T14:48:42;5.50;;;5.00;;
495;SDS011;39559;48.630;9.162;2023-05-16T14:53:11;5.50;;;4.70;;
495;SDS011;39559;48.630;9.162;2023-05-16T14:55:37;5.37;;;4.20;;
495;SDS011;39559;48.630;9.162;2023-05-16T14:58:03;5.13;;;4.63;;
495;SDS011;39559;48.630;9.162;2023-05-16T15:00:34;5.40;;;4.90;;
495;SDS011;39559;48.630;9.162;2023-05-16T15:02:59;5.97;;;4.37;;
495;SDS011;39559;48.630;9.162;2023-05-16T15:05:25;4.93;;;4.13;;
495;SDS011;39559;48.630;9.162;2023-05-16T15:07:59;4.78;;;4.35;;
495;SDS011;39559;48.630;9.162;2023-05-16T15:10:25;5.80;;;4.50;;
495;SDS011;39559;48.630;9.162;2023-05-16T15:12:51;4.50;;;4.10;;
495;SDS011;39559;48.630;9.162;2023-05-16T15:17:12;5.22;;;4.45;;
495;SDS011;39559;48.630;9.162;2023-05-16T15:19:38;4.03;;;3.63;;
495;SDS011;39559;48.630;9.162;2023-05-16T15:22:04;6.10;;;4.63;;
495;SDS011;39559;48.630;9.162;2023-05-16T15:24:32;6.22;;;3.95;;
495;SDS011;39559;48.630;9.162;2023-05-16T15:26:58;4.63;;;4.22;;
495;SDS011;39559;48.630;9.162;2023-05-16T15:29:24;4.70;;;4.20;;
495;SDS011;39559;48.630;9.162;2023-05-16T15:31:50;5.25;;;4.60;;
495;SDS011;39559;48.630;9.162;2023-05-16T15:34:16;4.77;;;4.37;;
495;SDS011;39559;48.630;9.162;2023-05-16T15:36:41;6.30;;;4.10;;
495;SDS011;39559;48.630;9.162;2023-05-16T15:41:09;4.30;;;3.88;;
495;SDS011;39559;48.630;9.162;2023-05-16T15:43:35;5.50;;;4.18;;
495;SDS011;39559;48.630;9.162;2023-05-16T15:46:00;5.40;;;3.63;;
495;SDS011;39559;48.630;9.162;2023-05-16T15:48:26;5.77;;;4.20;;
495;SDS011;39559;48.630;9.162;2023-05-16T15:50:52;5.30;;;3.80;;
495;SDS011;39559;48.630;9.162;2023-05-16T15:53:17;3.70;;;3.40;;
495;SDS011;39559;48.630;9.162;2023-05-16T15:55:43;4.33;;;3.93;;
495;SDS011;39559;48.630;9.162;2023-05-16T15:58:09;6.90;;;4.30;;
495;SDS011;39559;48.630;9.162;2023-05-16T16:00:34;4.53;;;4.13;;
495;SDS011;39559;48.630;9.162;2023-05-16T16:05:06;9.65;;;5.05;;
495;SDS011;39559;48.630;9.162;2023-05-16T16:07:32;4.90;;;3.77;;
495;SDS011;39559;48.630;9.162;2023-05-16T16:09:58;5.00;;;4.50;;
495;SDS011;39559;48.630;9.162;2023-05-16T16:12:24;4.73;;;4.20;;
495;SDS011;39559;48.630;9.162;2023-05-16T16:14:49;6.13;;;4.43;;
495;SDS011;39559;48.630;9.162;2023-05-16T16:17:16;5.45;;;4.30;;
495;SDS011;39559;48.630;9.162;2023-05-16T16:19:41;6.87;;;4.17;;
495;SDS011;39559;48.630;9.162;2023-05-16T16:22:07;5.30;;;4.80;;
495;SDS011;39559;48.630;9.162;2023-05-16T16:24:33;4.57;;;3.57;;
495;SDS011;39559;48.630;9.162;2023-05-16T16:29:04;6.05;;;3.83;;
495;SDS011;39559;48.630;9.162;2023-05-16T16:31:30;4.20;;;3.83;;
495;SDS011;39559;48.630;9.162;2023-05-16T16:33:56;4.57;;;4.17;;
495;SDS011;39559;48.630;9.162;2023-05-16T16:36:21;5.03;;;4.53;;
495;SDS011;39559;48.630;9.162;2023-05-16T16:38:47;6.63;;;4.40;;
495;SDS011;39559;48.630;9.162;2023-05-16T16:41:13;4.53;;;4.13;;